PWSweather.com
Personal Weather Stations
Station Observations
HELOTES
Helotes Park Terrace, Helotes, TX 78023

Helotes Park TerraceHelotes, TX 78023

Lat: 29.57, Lon: -98.68

Elevation: 1060

Station Type: Ambient Weather WS-1090

Latest ConditionsUpdated 8:52:39 AM CDT Saturday, Nov 1, 2014
Currently Today's Max Today's Min Today's Average
Temperature 47.9°F8.8°C 56.5°F13.6°C 47.2°F8.4°C 51.1°F10.6°C
Dew Point 40.2°F4.6°C 44.5°F6.9°C 39.2°F4.0°C 41.8°F5.4°C
Winds 9.5 mph N15.3 kmh N 9.5 mph N15.3 kmh N - 3.8 mph 6.1 kmh
Wind Gusts 12.1 mph19.5 kmh 12.5 mph20.1 kmh - -
Humidity 75% 75% 64% 70%
Pressure 30.26 in1024.7 mb 30.27 in1025.1 mb 30.21 in1023.0 mb -
Hour Temp Dew Point Humidity Winds Wind Gusts Pressure Precip Precip Rate Daily Precip Total
08:52 AM 47.9°F8.8°C 40.2°F4.6°C 75% 9.5 mph N15.3 kmh N 12.1 mph19.5 kmh 30.26 in1024.7 mb 0.00 in0.0 mm 0.00 in/hr0.0 mm/hr 0.00 in0.0 mm
08:47 AM 47.7°F8.7°C 40.2°F4.6°C 75% 6.5 mph NNE10.5 kmh NNE 11.4 mph18.3 kmh 30.26 in1024.7 mb 0.00 in0.0 mm 0.00 in/hr0.0 mm/hr 0.00 in0.0 mm
08:42 AM 47.5°F8.6°C 40.0°F4.4°C 75% 4.1 mph N6.6 kmh N 11.4 mph18.3 kmh 30.26 in1024.7 mb 0.00 in0.0 mm 0.00 in/hr0.0 mm/hr 0.00 in0.0 mm
08:37 AM 47.3°F8.5°C 39.8°F4.3°C 75% 4.8 mph N7.7 kmh N 8.5 mph13.7 kmh 30.26 in1024.7 mb 0.00 in0.0 mm 0.00 in/hr0.0 mm/hr 0.00 in0.0 mm
08:32 AM 47.3°F8.5°C 39.8°F4.3°C 75% 5.8 mph N9.3 kmh N 8.5 mph13.7 kmh 30.26 in1024.7 mb 0.00 in0.0 mm 0.00 in/hr0.0 mm/hr 0.00 in0.0 mm
08:27 AM 47.2°F8.4°C 39.6°F4.2°C 75% 5.5 mph N8.9 kmh N 6.7 mph10.8 kmh 30.27 in1025.1 mb 0.00 in0.0 mm 0.00 in/hr0.0 mm/hr 0.00 in0.0 mm
08:22 AM 47.2°F8.4°C 39.6°F4.2°C 75% 2.7 mph 4.3 kmh 6.5 mph10.5 kmh 30.27 in1025.1 mb 0.00 in0.0 mm 0.00 in/hr0.0 mm/hr 0.00 in0.0 mm
08:17 AM 47.2°F8.4°C 39.2°F4.0°C 74% 3.7 mph N6.0 kmh N 7.6 mph12.2 kmh 30.26 in1024.7 mb 0.00 in0.0 mm 0.00 in/hr0.0 mm/hr 0.00 in0.0 mm
08:12 AM 47.2°F8.4°C 39.2°F4.0°C 74% 4.8 mph N7.7 kmh N 7.8 mph12.6 kmh 30.26 in1024.7 mb 0.00 in0.0 mm 0.00 in/hr0.0 mm/hr 0.00 in0.0 mm
08:07 AM 47.2°F8.4°C 39.2°F4.0°C 74% 4.8 mph N7.7 kmh N 7.8 mph12.6 kmh 30.25 in1024.4 mb 0.00 in0.0 mm 0.00 in/hr0.0 mm/hr 0.00 in0.0 mm
08:02 AM 47.2°F8.4°C 39.2°F4.0°C 74% 3.9 mph N6.3 kmh N 6.9 mph11.1 kmh 30.26 in1024.7 mb 0.00 in0.0 mm 0.00 in/hr0.0 mm/hr 0.00 in0.0 mm
07:57 AM 47.2°F8.4°C 39.2°F4.0°C 74% 3.9 mph N6.3 kmh N 6.7 mph10.8 kmh 30.25 in1024.4 mb 0.00 in0.0 mm 0.00 in/hr0.0 mm/hr 0.00 in0.0 mm
07:52 AM 47.3°F8.5°C 39.4°F4.1°C 74% 3.7 mph N6.0 kmh N 8.1 mph13.0 kmh 30.26 in1024.7 mb 0.00 in0.0 mm 0.00 in/hr0.0 mm/hr 0.00 in0.0 mm
07:47 AM 47.3°F8.5°C 39.4°F4.1°C 74% 4.3 mph N6.9 kmh N 8.1 mph13.0 kmh 30.25 in1024.4 mb 0.00 in0.0 mm 0.00 in/hr0.0 mm/hr 0.00 in0.0 mm
07:42 AM 47.3°F8.5°C 39.4°F4.1°C 74% 4.6 mph 7.4 kmh 6.5 mph10.5 kmh 30.25 in1024.4 mb 0.00 in0.0 mm 0.00 in/hr0.0 mm/hr 0.00 in0.0 mm
07:37 AM 47.5°F8.6°C 39.2°F4.0°C 73% 4.6 mph N7.4 kmh N 7.4 mph11.9 kmh 30.25 in1024.4 mb 0.00 in0.0 mm 0.00 in/hr0.0 mm/hr 0.00 in0.0 mm
07:32 AM 47.5°F8.6°C 39.2°F4.0°C 73% 4.5 mph N7.2 kmh N 7.4 mph11.9 kmh 30.25 in1024.4 mb 0.00 in0.0 mm 0.00 in/hr0.0 mm/hr 0.00 in0.0 mm
07:27 AM 47.7°F8.7°C 39.4°F4.1°C 73% 3.5 mph N5.6 kmh N 7.4 mph11.9 kmh 30.25 in1024.4 mb 0.00 in0.0 mm 0.00 in/hr0.0 mm/hr 0.00 in0.0 mm
07:22 AM 47.7°F8.7°C 39.4°F4.1°C 73% 4.0 mph N6.4 kmh N 7.4 mph11.9 kmh 30.25 in1024.4 mb 0.00 in0.0 mm 0.00 in/hr0.0 mm/hr 0.00 in0.0 mm
07:17 AM 47.7°F8.7°C 39.4°F4.1°C 73% 3.9 mph N6.3 kmh N 7.6 mph12.2 kmh 30.25 in1024.4 mb 0.00 in0.0 mm 0.00 in/hr0.0 mm/hr 0.00 in0.0 mm
07:12 AM 47.9°F8.8°C 39.6°F4.2°C 73% 4.6 mph N7.4 kmh N 7.6 mph12.2 kmh 30.25 in1024.4 mb 0.00 in0.0 mm 0.00 in/hr0.0 mm/hr 0.00 in0.0 mm
07:07 AM 47.9°F8.8°C 39.6°F4.2°C 73% 4.8 mph N7.7 kmh N 7.6 mph12.2 kmh 30.25 in1024.4 mb 0.00 in0.0 mm 0.00 in/hr0.0 mm/hr 0.00 in0.0 mm
07:02 AM 47.9°F8.8°C 39.2°F4.0°C 72% 2.8 mph N4.5 kmh N 7.6 mph12.2 kmh 30.25 in1024.4 mb 0.00 in0.0 mm 0.00 in/hr0.0 mm/hr 0.00 in0.0 mm
06:57 AM 48.1°F8.9°C 39.4°F4.1°C 72% 4.1 mph N6.6 kmh N 7.6 mph12.2 kmh 30.25 in1024.4 mb 0.00 in0.0 mm 0.00 in/hr0.0 mm/hr 0.00 in0.0 mm
06:52 AM 48.2°F9.0°C 39.6°F4.2°C 72% 3.2 mph N5.1 kmh N 5.6 mph9.0 kmh 30.25 in1024.4 mb 0.00 in0.0 mm 0.00 in/hr0.0 mm/hr 0.00 in0.0 mm
06:47 AM 48.2°F9.0°C 39.6°F4.2°C 72% 3.7 mph N6.0 kmh N 5.8 mph9.3 kmh 30.24 in1024.0 mb 0.00 in0.0 mm 0.00 in/hr0.0 mm/hr 0.00 in0.0 mm
06:42 AM 48.4°F9.1°C 39.8°F4.3°C 72% 4.7 mph N7.6 kmh N 6.3 mph10.1 kmh 30.24 in1024.0 mb 0.00 in0.0 mm 0.00 in/hr0.0 mm/hr 0.00 in0.0 mm
06:37 AM 48.6°F9.2°C 40.0°F4.4°C 72% 4.9 mph N7.9 kmh N 6.3 mph10.1 kmh 30.24 in1024.0 mb 0.00 in0.0 mm 0.00 in/hr0.0 mm/hr 0.00 in0.0 mm
06:32 AM 48.6°F9.2°C 40.0°F4.4°C 72% 3.0 mph N4.8 kmh N 5.4 mph8.7 kmh 30.24 in1024.0 mb 0.00 in0.0 mm 0.00 in/hr0.0 mm/hr 0.00 in0.0 mm
06:27 AM 48.6°F9.2°C 40.0°F4.4°C 72% 4.2 mph N6.8 kmh N 5.6 mph9.0 kmh 30.24 in1024.0 mb 0.00 in0.0 mm 0.00 in/hr0.0 mm/hr 0.00 in0.0 mm
06:22 AM 48.8°F9.3°C 40.2°F4.6°C 72% 3.3 mph N5.3 kmh N 5.6 mph9.0 kmh 30.24 in1024.0 mb 0.00 in0.0 mm 0.00 in/hr0.0 mm/hr 0.00 in0.0 mm
06:17 AM 49.0°F9.4°C 40.3°F4.6°C 72% 2.6 mph N4.2 kmh N 4.9 mph7.9 kmh 30.24 in1024.0 mb 0.00 in0.0 mm 0.00 in/hr0.0 mm/hr 0.00 in0.0 mm
06:12 AM 49.0°F9.4°C 40.3°F4.6°C 72% 2.9 mph N4.7 kmh N 5.6 mph9.0 kmh 30.24 in1024.0 mb 0.00 in0.0 mm 0.00 in/hr0.0 mm/hr 0.00 in0.0 mm
06:07 AM 49.1°F9.5°C 40.2°F4.6°C 71% 3.6 mph N5.8 kmh N 6.7 mph10.8 kmh 30.24 in1024.0 mb 0.00 in0.0 mm 0.00 in/hr0.0 mm/hr 0.00 in0.0 mm
06:02 AM 49.3°F9.6°C 40.3°F4.6°C 71% 3.1 mph N5.0 kmh N 8.3 mph13.4 kmh 30.24 in1024.0 mb 0.00 in0.0 mm 0.00 in/hr0.0 mm/hr 0.00 in0.0 mm
05:57 AM 49.3°F9.6°C 40.3°F4.6°C 71% 3.6 mph N5.8 kmh N 8.3 mph13.4 kmh 30.23 in1023.7 mb 0.00 in0.0 mm 0.00 in/hr0.0 mm/hr 0.00 in0.0 mm
05:52 AM 49.3°F9.6°C 40.3°F4.6°C 71% 5.9 mph N9.5 kmh N 11.9 mph19.2 kmh 30.24 in1024.0 mb 0.00 in0.0 mm 0.00 in/hr0.0 mm/hr 0.00 in0.0 mm
05:47 AM 49.3°F9.6°C 40.3°F4.6°C 71% 7.8 mph N12.6 kmh N 11.9 mph19.2 kmh 30.23 in1023.7 mb 0.00 in0.0 mm 0.00 in/hr0.0 mm/hr 0.00 in0.0 mm
05:42 AM 49.5°F9.7°C 40.5°F4.7°C 71% 5.2 mph N8.4 kmh N 9.6 mph15.4 kmh 30.23 in1023.7 mb 0.00 in0.0 mm 0.00 in/hr0.0 mm/hr 0.00 in0.0 mm
05:37 AM 49.5°F9.7°C 40.5°F4.7°C 71% 6.8 mph NNE10.9 kmh NNE 11.2 mph18.0 kmh 30.23 in1023.7 mb 0.00 in0.0 mm 0.00 in/hr0.0 mm/hr 0.00 in0.0 mm
05:32 AM 49.5°F9.7°C 40.9°F4.9°C 72% 6.2 mph N10.0 kmh N 11.2 mph18.0 kmh 30.23 in1023.7 mb 0.00 in0.0 mm 0.00 in/hr0.0 mm/hr 0.00 in0.0 mm
05:27 AM 49.7°F9.8°C 41.1°F5.1°C 72% 4.6 mph 7.4 kmh 11.2 mph18.0 kmh 30.23 in1023.7 mb 0.00 in0.0 mm 0.00 in/hr0.0 mm/hr 0.00 in0.0 mm
05:22 AM 49.9°F9.9°C 41.2°F5.1°C 72% 6.0 mph N9.7 kmh N 8.3 mph13.4 kmh 30.23 in1023.7 mb 0.00 in0.0 mm 0.00 in/hr0.0 mm/hr 0.00 in0.0 mm
05:17 AM 50.0°F10.0°C 41.1°F5.1°C 71% 6.0 mph N9.7 kmh N 8.5 mph13.7 kmh 30.22 in1023.4 mb 0.00 in0.0 mm 0.00 in/hr0.0 mm/hr 0.00 in0.0 mm
05:12 AM 50.0°F10.0°C 41.1°F5.1°C 71% 5.7 mph N9.2 kmh N 8.5 mph13.7 kmh 30.22 in1023.4 mb 0.00 in0.0 mm 0.00 in/hr0.0 mm/hr 0.00 in0.0 mm
05:07 AM 50.2°F10.1°C 41.2°F5.1°C 71% 4.5 mph N7.2 kmh N 8.9 mph14.3 kmh 30.22 in1023.4 mb 0.00 in0.0 mm 0.00 in/hr0.0 mm/hr 0.00 in0.0 mm
05:02 AM 50.4°F10.2°C 41.4°F5.2°C 71% 5.5 mph N8.9 kmh N 8.9 mph14.3 kmh 30.22 in1023.4 mb 0.00 in0.0 mm 0.00 in/hr0.0 mm/hr 0.00 in0.0 mm
04:57 AM 50.6°F10.3°C 41.6°F5.3°C 71% 5.0 mph N8.0 kmh N 9.2 mph14.8 kmh 30.22 in1023.4 mb 0.00 in0.0 mm 0.00 in/hr0.0 mm/hr 0.00 in0.0 mm
04:52 AM 50.8°F10.4°C 41.8°F5.4°C 71% 4.5 mph N7.2 kmh N 9.2 mph14.8 kmh 30.22 in1023.4 mb 0.00 in0.0 mm 0.00 in/hr0.0 mm/hr 0.00 in0.0 mm
04:47 AM 50.8°F10.4°C 41.8°F5.4°C 71% 5.2 mph N8.4 kmh N 9.4 mph15.1 kmh 30.22 in1023.4 mb 0.00 in0.0 mm 0.00 in/hr0.0 mm/hr 0.00 in0.0 mm
04:42 AM 50.8°F10.4°C 41.8°F5.4°C 71% 4.2 mph N6.8 kmh N 9.4 mph15.1 kmh 30.22 in1023.4 mb 0.00 in0.0 mm 0.00 in/hr0.0 mm/hr 0.00 in0.0 mm
04:37 AM 50.9°F10.5°C 42.0°F5.6°C 71% 5.2 mph NNE8.4 kmh NNE 12.5 mph20.1 kmh 30.22 in1023.4 mb 0.00 in0.0 mm 0.00 in/hr0.0 mm/hr 0.00 in0.0 mm
04:32 AM 51.1°F10.6°C 41.8°F5.4°C 70% 7.7 mph N12.4 kmh N 12.5 mph20.1 kmh 30.22 in1023.4 mb 0.00 in0.0 mm 0.00 in/hr0.0 mm/hr 0.00 in0.0 mm
04:27 AM 51.1°F10.6°C 41.8°F5.4°C 70% 4.9 mph NNE7.9 kmh NNE 11.4 mph18.3 kmh 30.22 in1023.4 mb 0.00 in0.0 mm 0.00 in/hr0.0 mm/hr 0.00 in0.0 mm
04:22 AM 51.3°F10.7°C 42.3°F5.7°C 71% 4.6 mph N7.4 kmh N 8.7 mph14.0 kmh 30.22 in1023.4 mb 0.00 in0.0 mm 0.00 in/hr0.0 mm/hr 0.00 in0.0 mm
04:17 AM 51.3°F10.7°C 42.3°F5.7°C 71% 4.8 mph 7.7 kmh 8.7 mph14.0 kmh 30.22 in1023.4 mb 0.00 in0.0 mm 0.00 in/hr0.0 mm/hr 0.00 in0.0 mm
04:12 AM 51.5°F10.8°C 42.1°F5.6°C 70% 4.9 mph 7.9 kmh 7.4 mph11.9 kmh 30.22 in1023.4 mb 0.00 in0.0 mm 0.00 in/hr0.0 mm/hr 0.00 in0.0 mm
04:07 AM 51.5°F10.8°C 42.1°F5.6°C 70% 5.8 mph NNE9.3 kmh NNE 8.3 mph13.4 kmh 30.22 in1023.4 mb 0.00 in0.0 mm 0.00 in/hr0.0 mm/hr 0.00 in0.0 mm
04:02 AM 51.5°F10.8°C 42.1°F5.6°C 70% 4.6 mph N7.4 kmh N 8.3 mph13.4 kmh 30.22 in1023.4 mb 0.00 in0.0 mm 0.00 in/hr0.0 mm/hr 0.00 in0.0 mm
03:57 AM 51.5°F10.8°C 42.1°F5.6°C 70% 4.5 mph N7.2 kmh N 7.4 mph11.9 kmh 30.22 in1023.4 mb 0.00 in0.0 mm 0.00 in/hr0.0 mm/hr 0.00 in0.0 mm
03:52 AM 51.7°F10.9°C 42.3°F5.7°C 70% 5.2 mph N8.4 kmh N 7.4 mph11.9 kmh 30.22 in1023.4 mb 0.00 in0.0 mm 0.00 in/hr0.0 mm/hr 0.00 in0.0 mm
03:47 AM 51.7°F10.9°C 42.3°F5.7°C 70% 4.2 mph N6.8 kmh N 9.2 mph14.8 kmh 30.21 in1023.0 mb 0.00 in0.0 mm 0.00 in/hr0.0 mm/hr 0.00 in0.0 mm
03:42 AM 51.7°F10.9°C 42.3°F5.7°C 70% 4.8 mph N7.7 kmh N 9.2 mph14.8 kmh 30.21 in1023.0 mb 0.00 in0.0 mm 0.00 in/hr0.0 mm/hr 0.00 in0.0 mm
03:37 AM 51.8°F11.0°C 42.5°F5.8°C 70% 4.2 mph 6.8 kmh 8.5 mph13.7 kmh 30.21 in1023.0 mb 0.00 in0.0 mm 0.00 in/hr0.0 mm/hr 0.00 in0.0 mm
03:32 AM 52.0°F11.1°C 42.7°F5.9°C 70% 4.1 mph N6.6 kmh N 8.5 mph13.7 kmh 30.22 in1023.4 mb 0.00 in0.0 mm 0.00 in/hr0.0 mm/hr 0.00 in0.0 mm
03:27 AM 52.0°F11.1°C 42.7°F5.9°C 70% 5.5 mph 8.9 kmh 8.9 mph14.3 kmh 30.22 in1023.4 mb 0.00 in0.0 mm 0.00 in/hr0.0 mm/hr 0.00 in0.0 mm
03:22 AM 52.2°F11.2°C 42.9°F6.1°C 70% 5.2 mph NNE8.4 kmh NNE 8.9 mph14.3 kmh 30.22 in1023.4 mb 0.00 in0.0 mm 0.00 in/hr0.0 mm/hr 0.00 in0.0 mm
03:17 AM 52.2°F11.2°C 42.9°F6.1°C 70% 4.8 mph N7.7 kmh N 7.6 mph12.2 kmh 30.22 in1023.4 mb 0.00 in0.0 mm 0.00 in/hr0.0 mm/hr 0.00 in0.0 mm
03:12 AM 52.2°F11.2°C 42.9°F6.1°C 70% 5.1 mph N8.2 kmh N 8.3 mph13.4 kmh 30.22 in1023.4 mb 0.00 in0.0 mm 0.00 in/hr0.0 mm/hr 0.00 in0.0 mm
03:07 AM 52.2°F11.2°C 42.9°F6.1°C 70% 5.4 mph N8.7 kmh N 8.3 mph13.4 kmh 30.22 in1023.4 mb 0.00 in0.0 mm 0.00 in/hr0.0 mm/hr 0.00 in0.0 mm
03:02 AM 52.4°F11.3°C 42.9°F6.1°C 70% 4.1 mph N6.6 kmh N 6.3 mph10.1 kmh 30.22 in1023.4 mb 0.00 in0.0 mm 0.00 in/hr0.0 mm/hr 0.00 in0.0 mm
02:57 AM 52.6°F11.4°C 43.1°F6.2°C 70% 4.0 mph N6.4 kmh N 6.3 mph10.1 kmh 30.22 in1023.4 mb 0.00 in0.0 mm 0.00 in/hr0.0 mm/hr 0.00 in0.0 mm
02:52 AM 52.6°F11.4°C 43.1°F6.2°C 70% 2.8 mph N4.5 kmh N 4.7 mph7.6 kmh 30.22 in1023.4 mb 0.00 in0.0 mm 0.00 in/hr0.0 mm/hr 0.00 in0.0 mm
02:47 AM 52.6°F11.4°C 43.1°F6.2°C 70% 3.5 mph N5.6 kmh N 4.9 mph7.9 kmh 30.22 in1023.4 mb 0.00 in0.0 mm 0.00 in/hr0.0 mm/hr 0.00 in0.0 mm
02:42 AM 52.7°F11.5°C 43.3°F6.3°C 70% 3.1 mph N5.0 kmh N 5.6 mph9.0 kmh 30.22 in1023.4 mb 0.00 in0.0 mm 0.00 in/hr0.0 mm/hr 0.00 in0.0 mm
02:37 AM 52.7°F11.5°C 43.3°F6.3°C 70% 3.6 mph NNW5.8 kmh NNW 5.6 mph9.0 kmh 30.22 in1023.4 mb 0.00 in0.0 mm 0.00 in/hr0.0 mm/hr 0.00 in0.0 mm
02:32 AM 52.9°F11.6°C 43.0°F6.1°C 69% 3.0 mph N4.8 kmh N 4.7 mph7.6 kmh 30.22 in1023.4 mb 0.00 in0.0 mm 0.00 in/hr0.0 mm/hr 0.00 in0.0 mm
02:27 AM 52.9°F11.6°C 43.0°F6.1°C 69% 3.3 mph N5.3 kmh N 4.7 mph7.6 kmh 30.22 in1023.4 mb 0.00 in0.0 mm 0.00 in/hr0.0 mm/hr 0.00 in0.0 mm
02:22 AM 52.9°F11.6°C 43.0°F6.1°C 69% 2.1 mph N3.4 kmh N 4.5 mph7.2 kmh 30.22 in1023.4 mb 0.00 in0.0 mm 0.00 in/hr0.0 mm/hr 0.00 in0.0 mm
02:17 AM 52.9°F11.6°C 43.5°F6.4°C 70% 2.5 mph N4.0 kmh N 4.0 mph6.4 kmh 30.22 in1023.4 mb 0.00 in0.0 mm 0.00 in/hr0.0 mm/hr 0.00 in0.0 mm
02:12 AM 53.1°F11.7°C 43.2°F6.2°C 69% 2.7 mph N4.3 kmh N 3.6 mph5.8 kmh 30.22 in1023.4 mb 0.00 in0.0 mm 0.00 in/hr0.0 mm/hr 0.00 in0.0 mm
02:07 AM 53.3°F11.8°C 43.4°F6.3°C 69% 1.9 mph N3.1 kmh N 3.1 mph5.0 kmh 30.22 in1023.4 mb 0.00 in0.0 mm 0.00 in/hr0.0 mm/hr 0.00 in0.0 mm
02:02 AM 53.3°F11.8°C 43.4°F6.3°C 69% 2.0 mph N3.2 kmh N 4.0 mph6.4 kmh 30.22 in1023.4 mb 0.00 in0.0 mm 0.00 in/hr0.0 mm/hr 0.00 in0.0 mm
01:57 AM 53.5°F11.9°C 43.6°F6.4°C 69% 2.6 mph NNW4.2 kmh NNW 4.0 mph6.4 kmh 30.21 in1023.0 mb 0.00 in0.0 mm 0.00 in/hr0.0 mm/hr 0.00 in0.0 mm
01:52 AM 53.6°F12.0°C 43.8°F6.6°C 69% 1.8 mph N2.9 kmh N 3.1 mph5.0 kmh 30.21 in1023.0 mb 0.00 in0.0 mm 0.00 in/hr0.0 mm/hr 0.00 in0.0 mm
01:47 AM 53.6°F12.0°C 43.8°F6.6°C 69% 1.1 mph NNW1.8 kmh NNW 2.5 mph4.0 kmh 30.21 in1023.0 mb 0.00 in0.0 mm 0.00 in/hr0.0 mm/hr 0.00 in0.0 mm
01:42 AM 53.8°F12.1°C 43.9°F6.6°C 69% 1.0 mph NW1.6 kmh NW 2.5 mph4.0 kmh 30.22 in1023.4 mb 0.00 in0.0 mm 0.00 in/hr0.0 mm/hr 0.00 in0.0 mm
01:37 AM 54.0°F12.2°C 44.1°F6.7°C 69% 1.5 mph 2.4 kmh 2.5 mph4.0 kmh 30.22 in1023.4 mb 0.00 in0.0 mm 0.00 in/hr0.0 mm/hr 0.00 in0.0 mm
01:32 AM 54.0°F12.2°C 43.7°F6.5°C 68% 1.2 mph N1.9 kmh N 4.3 mph6.9 kmh 30.22 in1023.4 mb 0.00 in0.0 mm 0.00 in/hr0.0 mm/hr 0.00 in0.0 mm
01:27 AM 54.2°F12.3°C 43.8°F6.6°C 68% 1.5 mph NW2.4 kmh NW 4.3 mph6.9 kmh 30.22 in1023.4 mb 0.00 in0.0 mm 0.00 in/hr0.0 mm/hr 0.00 in0.0 mm
01:22 AM 54.4°F12.4°C 44.0°F6.7°C 68% 2.0 mph NW3.2 kmh NW 4.3 mph6.9 kmh 30.22 in1023.4 mb 0.00 in0.0 mm 0.00 in/hr0.0 mm/hr 0.00 in0.0 mm
01:17 AM 54.5°F12.5°C 44.2°F6.8°C 68% 1.0 mph NW1.6 kmh NW 1.8 mph2.9 kmh 30.22 in1023.4 mb 0.00 in0.0 mm 0.00 in/hr0.0 mm/hr 0.00 in0.0 mm
01:12 AM 54.7°F12.6°C 43.9°F6.6°C 67% 1.1 mph N1.8 kmh N 2.5 mph4.0 kmh 30.22 in1023.4 mb 0.00 in0.0 mm 0.00 in/hr0.0 mm/hr 0.00 in0.0 mm
01:07 AM 54.7°F12.6°C 43.9°F6.6°C 67% 0.7 mph 1.1 kmh 2.5 mph4.0 kmh 30.22 in1023.4 mb 0.00 in0.0 mm 0.00 in/hr0.0 mm/hr 0.00 in0.0 mm
01:02 AM 54.9°F12.7°C 44.1°F6.7°C 67% 0.8 mph NNW1.3 kmh NNW 2.5 mph4.0 kmh 30.22 in1023.4 mb 0.00 in0.0 mm 0.00 in/hr0.0 mm/hr 0.00 in0.0 mm
12:57 AM 55.1°F12.8°C 44.3°F6.8°C 67% 1.0 mph NNW1.6 kmh NNW 2.5 mph4.0 kmh 30.22 in1023.4 mb 0.00 in0.0 mm 0.00 in/hr0.0 mm/hr 0.00 in0.0 mm
12:52 AM 55.1°F12.8°C 43.9°F6.6°C 66% 1.2 mph NNW1.9 kmh NNW 2.7 mph4.3 kmh 30.22 in1023.4 mb 0.00 in0.0 mm 0.00 in/hr0.0 mm/hr 0.00 in0.0 mm
12:47 AM 55.3°F12.9°C 44.1°F6.7°C 66% 1.3 mph NNW2.1 kmh NNW 3.1 mph5.0 kmh 30.22 in1023.4 mb 0.00 in0.0 mm 0.00 in/hr0.0 mm/hr 0.00 in0.0 mm
12:42 AM 55.4°F13.0°C 44.3°F6.8°C 66% 2.1 mph N3.4 kmh N 3.1 mph5.0 kmh 30.22 in1023.4 mb 0.00 in0.0 mm 0.00 in/hr0.0 mm/hr 0.00 in0.0 mm
12:37 AM 55.6°F13.1°C 44.4°F6.9°C 66% 2.0 mph NNW3.2 kmh NNW 3.6 mph5.8 kmh 30.22 in1023.4 mb 0.00 in0.0 mm 0.00 in/hr0.0 mm/hr 0.00 in0.0 mm
12:32 AM 55.8°F13.2°C 44.2°F6.8°C 65% 1.9 mph NNW3.1 kmh NNW 3.8 mph6.1 kmh 30.22 in1023.4 mb 0.00 in0.0 mm 0.00 in/hr0.0 mm/hr 0.00 in0.0 mm
12:27 AM 55.8°F13.2°C 44.2°F6.8°C 65% 2.3 mph N3.7 kmh N 3.8 mph6.1 kmh 30.22 in1023.4 mb 0.00 in0.0 mm 0.00 in/hr0.0 mm/hr 0.00 in0.0 mm
12:22 AM 56.0°F13.3°C 44.4°F6.9°C 65% 1.9 mph NNW3.1 kmh NNW 3.1 mph5.0 kmh 30.22 in1023.4 mb 0.00 in0.0 mm 0.00 in/hr0.0 mm/hr 0.00 in0.0 mm
12:17 AM 56.2°F13.4°C 44.1°F6.7°C 64% 1.5 mph NNW2.4 kmh NNW 4.7 mph7.6 kmh 30.22 in1023.4 mb 0.00 in0.0 mm 0.00 in/hr0.0 mm/hr 0.00 in0.0 mm
12:12 AM 56.3°F13.5°C 44.3°F6.8°C 64% 2.1 mph N3.4 kmh N 4.7 mph7.6 kmh 30.22 in1023.4 mb 0.00 in0.0 mm 0.00 in/hr0.0 mm/hr 0.00 in0.0 mm
12:07 AM 56.5°F13.6°C 44.5°F6.9°C 64% 2.5 mph NNW4.0 kmh NNW 4.3 mph6.9 kmh 30.22 in1023.4 mb 0.00 in0.0 mm 0.00 in/hr0.0 mm/hr 0.00 in0.0 mm
12:02 AM 56.5°F13.6°C 44.5°F6.9°C 64% 2.6 mph N4.2 kmh N 4.0 mph6.4 kmh 30.22 in1023.4 mb 0.00 in0.0 mm 0.00 in/hr0.0 mm/hr 0.00 in0.0 mm